sensor_id;sensor_type;location;lat;lon;timestamp;temperature;humidity
8896;DHT22;4484;48.928;10.066;2023-06-05T00:00:57;12.10;92.60
8896;DHT22;4484;48.928;10.066;2023-06-05T00:03:24;12.00;92.70
8896;DHT22;4484;48.928;10.066;2023-06-05T00:05:54;12.00;92.90
8896;DHT22;4484;48.928;10.066;2023-06-05T00:08:21;12.00;93.10
8896;DHT22;4484;48.928;10.066;2023-06-05T00:10:48;11.90;93.10
8896;DHT22;4484;48.928;10.066;2023-06-05T00:13:15;11.90;93.40
8896;DHT22;4484;48.928;10.066;2023-06-05T00:15:42;11.90;93.60
8896;DHT22;4484;48.928;10.066;2023-06-05T00:18:09;11.90;93.80
8896;DHT22;4484;48.928;10.066;2023-06-05T00:20:36;11.80;93.90
8896;DHT22;4484;48.928;10.066;2023-06-05T00:23:03;11.80;94.10
8896;DHT22;4484;48.928;10.066;2023-06-05T00:25:30;11.80;94.10
8896;DHT22;4484;48.928;10.066;2023-06-05T00:27:57;11.80;94.10
8896;DHT22;4484;48.928;10.066;2023-06-05T00:30:24;11.80;94.30
8896;DHT22;4484;48.928;10.066;2023-06-05T00:32:51;11.80;94.70
8896;DHT22;4484;48.928;10.066;2023-06-05T00:35:17;11.70;94.60
8896;DHT22;4484;48.928;10.066;2023-06-05T00:37:44;11.70;94.90
8896;DHT22;4484;48.928;10.066;2023-06-05T00:40:13;11.70;95.00
8896;DHT22;4484;48.928;10.066;2023-06-05T00:42:40;11.60;95.20
8896;DHT22;4484;48.928;10.066;2023-06-05T00:45:07;11.60;95.20
8896;DHT22;4484;48.928;10.066;2023-06-05T00:47:34;11.50;95.40
8896;DHT22;4484;48.928;10.066;2023-06-05T00:50:02;11.50;95.60
8896;DHT22;4484;48.928;10.066;2023-06-05T00:52:30;11.40;95.60
8896;DHT22;4484;48.928;10.066;2023-06-05T00:54:57;11.40;95.60
8896;DHT22;4484;48.928;10.066;2023-06-05T00:57:26;11.40;95.80
8896;DHT22;4484;48.928;10.066;2023-06-05T00:59:53;11.30;95.90
8896;DHT22;4484;48.928;10.066;2023-06-05T01:02:20;11.30;95.90
8896;DHT22;4484;48.928;10.066;2023-06-05T01:04:48;11.20;96.20
8896;DHT22;4484;48.928;10.066;2023-06-05T01:07:16;11.20;96.70
8896;DHT22;4484;48.928;10.066;2023-06-05T01:09:43;11.10;96.90
8896;DHT22;4484;48.928;10.066;2023-06-05T01:12:20;11.10;97.30
8896;DHT22;4484;48.928;10.066;2023-06-05T01:14:49;11.00;97.80
8896;DHT22;4484;48.928;10.066;2023-06-05T01:17:18;10.90;98.10
8896;DHT22;4484;48.928;10.066;2023-06-05T01:19:46;10.90;98.20
8896;DHT22;4484;48.928;10.066;2023-06-05T01:22:16;10.80;98.50
8896;DHT22;4484;48.928;10.066;2023-06-05T01:24:43;10.80;98.90
8896;DHT22;4484;48.928;10.066;2023-06-05T01:27:26;10.80;99.10
8896;DHT22;4484;48.928;10.066;2023-06-05T01:30:06;10.70;99.30
8896;DHT22;4484;48.928;10.066;2023-06-05T01:33:00;10.70;99.60
8896;DHT22;4484;48.928;10.066;2023-06-05T01:35:30;10.60;99.70
8896;DHT22;4484;48.928;10.066;2023-06-05T01:38:01;10.60;99.90
8896;DHT22;4484;48.928;10.066;2023-06-05T01:40:34;10.60;99.90
8896;DHT22;4484;48.928;10.066;2023-06-05T01:43:02;10.50;99.90
8896;DHT22;4484;48.928;10.066;2023-06-05T01:45:30;10.50;99.90
8896;DHT22;4484;48.928;10.066;2023-06-05T01:47:58;10.50;99.90
8896;DHT22;4484;48.928;10.066;2023-06-05T01:50:25;10.50;99.90
8896;DHT22;4484;48.928;10.066;2023-06-05T01:52:53;10.40;99.90
8896;DHT22;4484;48.928;10.066;2023-06-05T01:55:22;10.40;99.90
8896;DHT22;4484;48.928;10.066;2023-06-05T01:57:54;10.30;99.90
8896;DHT22;4484;48.928;10.066;2023-06-05T02:00:21;10.30;99.90
8896;DHT22;4484;48.928;10.066;2023-06-05T02:02:48;10.20;99.90
8896;DHT22;4484;48.928;10.066;2023-06-05T02:05:18;10.20;99.90
8896;DHT22;4484;48.928;10.066;2023-06-05T02:07:49;10.20;99.90
8896;DHT22;4484;48.928;10.066;2023-06-05T02:10:21;10.10;99.90
8896;DHT22;4484;48.928;10.066;2023-06-05T02:12:48;10.10;99.90
8896;DHT22;4484;48.928;10.066;2023-06-05T02:15:16;10.00;99.90
8896;DHT22;4484;48.928;10.066;2023-06-05T02:17:43;10.00;99.90
8896;DHT22;4484;48.928;10.066;2023-06-05T02:20:18;9.90;99.90
8896;DHT22;4484;48.928;10.066;2023-06-05T02:22:45;9.90;99.90
8896;DHT22;4484;48.928;10.066;2023-06-05T02:25:16;9.80;99.90
8896;DHT22;4484;48.928;10.066;2023-06-05T02:27:44;9.80;99.90
8896;DHT22;4484;48.928;10.066;2023-06-05T02:30:11;9.70;99.90
8896;DHT22;4484;48.928;10.066;2023-06-05T02:32:39;9.70;99.90
8896;DHT22;4484;48.928;10.066;2023-06-05T02:35:11;9.70;99.90
8896;DHT22;4484;48.928;10.066;2023-06-05T02:37:40;9.60;99.90
8896;DHT22;4484;48.928;10.066;2023-06-05T02:40:12;9.60;99.90
8896;DHT22;4484;48.928;10.066;2023-06-05T02:42:40;9.60;99.90
8896;DHT22;4484;48.928;10.066;2023-06-05T02:45:08;9.50;99.90
8896;DHT22;4484;48.928;10.066;2023-06-05T02:47:35;9.50;99.90
8896;DHT22;4484;48.928;10.066;2023-06-05T02:50:02;9.40;99.90
8896;DHT22;4484;48.928;10.066;2023-06-05T02:52:34;9.40;99.90
8896;DHT22;4484;48.928;10.066;2023-06-05T02:55:09;9.40;99.90
8896;DHT22;4484;48.928;10.066;2023-06-05T02:57:36;9.30;99.90
8896;DHT22;4484;48.928;10.066;2023-06-05T03:00:12;9.30;99.90
8896;DHT22;4484;48.928;10.066;2023-06-05T03:02:41;9.30;99.90
8896;DHT22;4484;48.928;10.066;2023-06-05T03:05:09;9.30;99.90
8896;DHT22;4484;48.928;10.066;2023-06-05T03:07:36;9.20;99.90
8896;DHT22;4484;48.928;10.066;2023-06-05T03:10:06;9.20;99.90
8896;DHT22;4484;48.928;10.066;2023-06-05T03:12:34;9.10;99.90
8896;DHT22;4484;48.928;10.066;2023-06-05T03:15:01;9.10;99.90
8896;DHT22;4484;48.928;10.066;2023-06-05T03:17:31;9.10;99.90
8896;DHT22;4484;48.928;10.066;2023-06-05T03:19:58;9.10;99.90
8896;DHT22;4484;48.928;10.066;2023-06-05T03:22:25;9.10;99.90
8896;DHT22;4484;48.928;10.066;2023-06-05T03:24:53;9.10;99.90
8896;DHT22;4484;48.928;10.066;2023-06-05T03:27:56;9.00;99.90
8896;DHT22;4484;48.928;10.066;2023-06-05T03:30:25;9.10;99.90
8896;DHT22;4484;48.928;10.066;2023-06-05T03:32:55;9.00;99.90
8896;DHT22;4484;48.928;10.066;2023-06-05T03:35:22;9.10;99.90
8896;DHT22;4484;48.928;10.066;2023-06-05T03:37:50;9.00;99.90
8896;DHT22;4484;48.928;10.066;2023-06-05T03:40:17;9.10;99.90
8896;DHT22;4484;48.928;10.066;2023-06-05T03:42:45;9.10;99.90
8896;DHT22;4484;48.928;10.066;2023-06-05T03:45:12;9.20;99.90
8896;DHT22;4484;48.928;10.066;2023-06-05T03:47:40;9.30;99.90
8896;DHT22;4484;48.928;10.066;2023-06-05T03:50:10;9.30;99.90
8896;DHT22;4484;48.928;10.066;2023-06-05T03:52:40;9.40;99.90
8896;DHT22;4484;48.928;10.066;2023-06-05T03:55:08;9.30;99.90
8896;DHT22;4484;48.928;10.066;2023-06-05T03:57:37;9.40;99.90
8896;DHT22;4484;48.928;10.066;2023-06-05T04:00:10;9.40;99.90
8896;DHT22;4484;48.928;10.066;2023-06-05T04:02:48;9.40;99.90
8896;DHT22;4484;48.928;10.066;2023-06-05T04:05:15;9.50;99.90
8896;DHT22;4484;48.928;10.066;2023-06-05T04:07:44;9.50;99.90
8896;DHT22;4484;48.928;10.066;2023-06-05T04:10:11;9.50;99.90
8896;DHT22;4484;48.928;10.066;2023-06-05T04:12:39;9.50;99.90
8896;DHT22;4484;48.928;10.066;2023-06-05T04:15:07;9.60;99.90
8896;DHT22;4484;48.928;10.066;2023-06-05T04:17:36;9.60;99.90
8896;DHT22;4484;48.928;10.066;2023-06-05T04:20:05;9.70;99.90
8896;DHT22;4484;48.928;10.066;2023-06-05T04:22:35;9.70;99.90
8896;DHT22;4484;48.928;10.066;2023-06-05T04:25:03;9.70;99.90
8896;DHT22;4484;48.928;10.066;2023-06-05T04:27:30;9.80;99.90
8896;DHT22;4484;48.928;10.066;2023-06-05T04:29:57;9.80;99.90
8896;DHT22;4484;48.928;10.066;2023-06-05T04:32:25;9.90;99.90
8896;DHT22;4484;48.928;10.066;2023-06-05T04:34:52;9.90;99.90
8896;DHT22;4484;48.928;10.066;2023-06-05T04:37:19;10.00;99.90
8896;DHT22;4484;48.928;10.066;2023-06-05T04:39:46;10.00;99.90
8896;DHT22;4484;48.928;10.066;2023-06-05T04:42:13;10.10;99.90
8896;DHT22;4484;48.928;10.066;2023-06-05T04:44:44;10.10;99.90
8896;DHT22;4484;48.928;10.066;2023-06-05T04:47:11;10.20;99.90
8896;DHT22;4484;48.928;10.066;2023-06-05T04:49:38;10.30;99.90
8896;DHT22;4484;48.928;10.066;2023-06-05T04:52:06;10.40;99.90
8896;DHT22;4484;48.928;10.066;2023-06-05T04:54:34;10.50;99.90
8896;DHT22;4484;48.928;10.066;2023-06-05T04:57:01;10.50;99.90
8896;DHT22;4484;48.928;10.066;2023-06-05T04:59:29;10.70;99.90
8896;DHT22;4484;48.928;10.066;2023-06-05T05:02:00;10.80;99.90
8896;DHT22;4484;48.928;10.066;2023-06-05T05:04:27;10.80;99.90
8896;DHT22;4484;48.928;10.066;2023-06-05T05:06:56;10.90;99.90
8896;DHT22;4484;48.928;10.066;2023-06-05T05:09:29;10.90;99.90
8896;DHT22;4484;48.928;10.066;2023-06-05T05:11:57;11.00;99.90
8896;DHT22;4484;48.928;10.066;2023-06-05T05:14:25;11.10;99.90
8896;DHT22;4484;48.928;10.066;2023-06-05T05:16:54;11.20;99.90
8896;DHT22;4484;48.928;10.066;2023-06-05T05:19:22;11.30;99.90
8896;DHT22;4484;48.928;10.066;2023-06-05T05:21:49;11.40;99.90
8896;DHT22;4484;48.928;10.066;2023-06-05T05:24:17;11.50;99.90
8896;DHT22;4484;48.928;10.066;2023-06-05T05:26:44;11.60;99.90
8896;DHT22;4484;48.928;10.066;2023-06-05T05:29:10;11.70;99.90
8896;DHT22;4484;48.928;10.066;2023-06-05T05:31:37;11.90;99.90
8896;DHT22;4484;48.928;10.066;2023-06-05T05:34:04;12.10;99.90
8896;DHT22;4484;48.928;10.066;2023-06-05T05:36:32;12.20;99.90
8896;DHT22;4484;48.928;10.066;2023-06-05T05:39:03;12.40;99.90
8896;DHT22;4484;48.928;10.066;2023-06-05T05:41:31;12.60;99.90
8896;DHT22;4484;48.928;10.066;2023-06-05T05:43:58;12.80;99.90
8896;DHT22;4484;48.928;10.066;2023-06-05T05:46:25;13.00;99.90
8896;DHT22;4484;48.928;10.066;2023-06-05T05:48:53;13.20;99.90
8896;DHT22;4484;48.928;10.066;2023-06-05T05:51:21;13.40;99.90
8896;DHT22;4484;48.928;10.066;2023-06-05T05:53:48;13.70;99.90
8896;DHT22;4484;48.928;10.066;2023-06-05T05:56:15;13.90;99.90
8896;DHT22;4484;48.928;10.066;2023-06-05T05:58:42;14.10;99.90
8896;DHT22;4484;48.928;10.066;2023-06-05T06:01:10;14.40;99.90
8896;DHT22;4484;48.928;10.066;2023-06-05T06:03:38;14.50;99.90
8896;DHT22;4484;48.928;10.066;2023-06-05T06:06:05;14.80;99.90
8896;DHT22;4484;48.928;10.066;2023-06-05T06:08:36;15.00;99.90
8896;DHT22;4484;48.928;10.066;2023-06-05T06:11:03;15.20;99.90
8896;DHT22;4484;48.928;10.066;2023-06-05T06:13:33;15.40;99.90
8896;DHT22;4484;48.928;10.066;2023-06-05T06:16:02;15.60;99.90
8896;DHT22;4484;48.928;10.066;2023-06-05T06:18:29;15.60;99.90
8896;DHT22;4484;48.928;10.066;2023-06-05T06:20:57;15.60;99.90
8896;DHT22;4484;48.928;10.066;2023-06-05T06:23:25;15.60;99.90
8896;DHT22;4484;48.928;10.066;2023-06-05T06:25:52;15.60;99.90
8896;DHT22;4484;48.928;10.066;2023-06-05T06:28:18;15.50;99.90
8896;DHT22;4484;48.928;10.066;2023-06-05T06:30:46;15.60;99.90
8896;DHT22;4484;48.928;10.066;2023-06-05T06:33:13;15.80;99.90
8896;DHT22;4484;48.928;10.066;2023-06-05T06:35:40;16.10;99.90
8896;DHT22;4484;48.928;10.066;2023-06-05T06:38:07;16.50;99.90
8896;DHT22;4484;48.928;10.066;2023-06-05T06:40:34;17.00;99.90
8896;DHT22;4484;48.928;10.066;2023-06-05T06:43:01;17.50;99.90
8896;DHT22;4484;48.928;10.066;2023-06-05T06:45:45;17.90;99.60
8896;DHT22;4484;48.928;10.066;2023-06-05T06:48:12;18.30;97.70
8896;DHT22;4484;48.928;10.066;2023-06-05T06:50:39;18.60;97.00
8896;DHT22;4484;48.928;10.066;2023-06-05T06:53:06;18.80;96.20
8896;DHT22;4484;48.928;10.066;2023-06-05T06:55:33;19.10;95.70
8896;DHT22;4484;48.928;10.066;2023-06-05T06:58:00;19.50;96.90
8896;DHT22;4484;48.928;10.066;2023-06-05T07:00:27;19.80;94.80
8896;DHT22;4484;48.928;10.066;2023-06-05T07:02:53;20.20;96.00
8896;DHT22;4484;48.928;10.066;2023-06-05T07:05:20;20.50;92.90
8896;DHT22;4484;48.928;10.066;2023-06-05T07:07:47;20.60;92.40
8896;DHT22;4484;48.928;10.066;2023-06-05T07:10:14;20.80;92.90
8896;DHT22;4484;48.928;10.066;2023-06-05T07:12:41;21.20;91.10
8896;DHT22;4484;48.928;10.066;2023-06-05T07:15:08;21.40;91.40
8896;DHT22;4484;48.928;10.066;2023-06-05T07:17:35;21.80;91.40
8896;DHT22;4484;48.928;10.066;2023-06-05T07:20:02;22.10;91.40
8896;DHT22;4484;48.928;10.066;2023-06-05T07:22:32;22.60;91.70
8896;DHT22;4484;48.928;10.066;2023-06-05T07:24:59;23.00;91.70
8896;DHT22;4484;48.928;10.066;2023-06-05T07:27:26;23.50;90.50
8896;DHT22;4484;48.928;10.066;2023-06-05T07:29:55;23.90;87.70
8896;DHT22;4484;48.928;10.066;2023-06-05T07:32:23;24.30;85.20
8896;DHT22;4484;48.928;10.066;2023-06-05T07:34:51;24.40;79.50
8896;DHT22;4484;48.928;10.066;2023-06-05T07:37:17;24.70;79.30
8896;DHT22;4484;48.928;10.066;2023-06-05T07:39:44;24.70;77.30
8896;DHT22;4484;48.928;10.066;2023-06-05T07:42:11;24.80;78.00
8896;DHT22;4484;48.928;10.066;2023-06-05T07:44:40;25.00;80.80
8896;DHT22;4484;48.928;10.066;2023-06-05T07:47:06;25.40;78.80
8896;DHT22;4484;48.928;10.066;2023-06-05T07:49:33;25.60;80.80
8896;DHT22;4484;48.928;10.066;2023-06-05T07:52:00;25.90;77.30
8896;DHT22;4484;48.928;10.066;2023-06-05T07:54:27;25.90;72.00
8896;DHT22;4484;48.928;10.066;2023-06-05T07:56:54;26.20;78.10
8896;DHT22;4484;48.928;10.066;2023-06-05T07:59:24;26.60;76.90
8896;DHT22;4484;48.928;10.066;2023-06-05T08:01:52;26.90;70.40
8896;DHT22;4484;48.928;10.066;2023-06-05T08:04:19;27.00;72.20
8896;DHT22;4484;48.928;10.066;2023-06-05T08:06:47;27.00;72.60
8896;DHT22;4484;48.928;10.066;2023-06-05T08:09:14;27.10;70.60
8896;DHT22;4484;48.928;10.066;2023-06-05T08:11:41;26.80;65.70
8896;DHT22;4484;48.928;10.066;2023-06-05T08:14:08;26.20;66.30
8896;DHT22;4484;48.928;10.066;2023-06-05T08:16:36;26.10;71.50
8896;DHT22;4484;48.928;10.066;2023-06-05T08:19:03;26.10;68.70
8896;DHT22;4484;48.928;10.066;2023-06-05T08:21:30;25.60;67.80
8896;DHT22;4484;48.928;10.066;2023-06-05T08:23:57;25.70;71.80
8896;DHT22;4484;48.928;10.066;2023-06-05T08:26:24;26.40;78.30
8896;DHT22;4484;48.928;10.066;2023-06-05T08:28:52;27.10;71.40
8896;DHT22;4484;48.928;10.066;2023-06-05T08:31:20;27.70;75.60
8896;DHT22;4484;48.928;10.066;2023-06-05T08:33:48;28.30;70.50
8896;DHT22;4484;48.928;10.066;2023-06-05T08:36:15;28.60;65.80
8896;DHT22;4484;48.928;10.066;2023-06-05T08:38:43;28.60;66.00
8896;DHT22;4484;48.928;10.066;2023-06-05T08:41:13;28.70;66.70
8896;DHT22;4484;48.928;10.066;2023-06-05T08:43:43;29.00;69.10
8896;DHT22;4484;48.928;10.066;2023-06-05T08:46:12;29.20;64.90
8896;DHT22;4484;48.928;10.066;2023-06-05T08:48:47;29.50;66.50
8896;DHT22;4484;48.928;10.066;2023-06-05T08:51:15;29.30;62.70
8896;DHT22;4484;48.928;10.066;2023-06-05T08:53:50;29.50;60.30
8896;DHT22;4484;48.928;10.066;2023-06-05T08:56:17;29.30;60.90
8896;DHT22;4484;48.928;10.066;2023-06-05T08:58:46;29.10;60.00
8896;DHT22;4484;48.928;10.066;2023-06-05T09:01:16;29.10;60.30
8896;DHT22;4484;48.928;10.066;2023-06-05T09:03:43;28.90;63.20
8896;DHT22;4484;48.928;10.066;2023-06-05T09:06:11;29.10;64.80
8896;DHT22;4484;48.928;10.066;2023-06-05T09:08:38;29.10;61.10
8896;DHT22;4484;48.928;10.066;2023-06-05T09:11:23;29.50;67.60
8896;DHT22;4484;48.928;10.066;2023-06-05T09:13:52;29.70;59.10
8896;DHT22;4484;48.928;10.066;2023-06-05T09:16:20;29.70;60.00
8896;DHT22;4484;48.928;10.066;2023-06-05T09:18:54;29.80;62.20
8896;DHT22;4484;48.928;10.066;2023-06-05T09:21:22;30.10;57.30
8896;DHT22;4484;48.928;10.066;2023-06-05T09:24:13;29.80;57.10
8896;DHT22;4484;48.928;10.066;2023-06-05T09:29:29;30.10;56.50
8896;DHT22;4484;48.928;10.066;2023-06-05T09:34:36;29.40;60.50
8896;DHT22;4484;48.928;10.066;2023-06-05T09:37:08;29.80;62.60
8896;DHT22;4484;48.928;10.066;2023-06-05T09:39:37;30.30;58.30
8896;DHT22;4484;48.928;10.066;2023-06-05T09:42:04;30.70;57.00
8896;DHT22;4484;48.928;10.066;2023-06-05T09:44:33;31.10;58.70
8896;DHT22;4484;48.928;10.066;2023-06-05T09:52:10;30.90;56.30
8896;DHT22;4484;48.928;10.066;2023-06-05T09:54:39;31.30;55.50
8896;DHT22;4484;48.928;10.066;2023-06-05T09:57:08;31.70;52.80
8896;DHT22;4484;48.928;10.066;2023-06-05T09:59:54;31.30;49.90
8896;DHT22;4484;48.928;10.066;2023-06-05T10:02:24;31.50;52.90
8896;DHT22;4484;48.928;10.066;2023-06-05T10:05:02;31.30;51.10
8896;DHT22;4484;48.928;10.066;2023-06-05T10:07:30;31.30;52.20
8896;DHT22;4484;48.928;10.066;2023-06-05T10:09:58;30.70;51.50
8896;DHT22;4484;48.928;10.066;2023-06-05T10:12:26;30.30;51.60
8896;DHT22;4484;48.928;10.066;2023-06-05T10:14:54;29.90;52.00
8896;DHT22;4484;48.928;10.066;2023-06-05T10:17:22;29.60;53.40
8896;DHT22;4484;48.928;10.066;2023-06-05T10:19:51;29.70;53.30
8896;DHT22;4484;48.928;10.066;2023-06-05T10:22:18;29.90;53.70
8896;DHT22;4484;48.928;10.066;2023-06-05T10:24:54;30.50;56.10
8896;DHT22;4484;48.928;10.066;2023-06-05T10:27:39;31.00;52.90
8896;DHT22;4484;48.928;10.066;2023-06-05T10:33:36;32.10;56.70
8896;DHT22;4484;48.928;10.066;2023-06-05T10:36:30;32.30;56.30
8896;DHT22;4484;48.928;10.066;2023-06-05T10:39:10;31.90;53.80
8896;DHT22;4484;48.928;10.066;2023-06-05T10:41:38;31.30;53.00
8896;DHT22;4484;48.928;10.066;2023-06-05T10:44:05;31.10;53.90
8896;DHT22;4484;48.928;10.066;2023-06-05T10:46:34;31.20;56.30
8896;DHT22;4484;48.928;10.066;2023-06-05T10:51:50;31.50;51.90
8896;DHT22;4484;48.928;10.066;2023-06-05T10:57:01;30.90;51.90
8896;DHT22;4484;48.928;10.066;2023-06-05T10:59:32;31.10;55.00
8896;DHT22;4484;48.928;10.066;2023-06-05T11:15:06;31.30;50.40
8896;DHT22;4484;48.928;10.066;2023-06-05T11:20:02;31.50;49.90
8896;DHT22;4484;48.928;10.066;2023-06-05T11:25:28;32.10;49.10
8896;DHT22;4484;48.928;10.066;2023-06-05T11:28:00;31.90;48.80
8896;DHT22;4484;48.928;10.066;2023-06-05T11:30:46;31.50;49.90
8896;DHT22;4484;48.928;10.066;2023-06-05T11:33:17;30.80;48.80
8896;DHT22;4484;48.928;10.066;2023-06-05T11:35:46;29.90;48.70
8896;DHT22;4484;48.928;10.066;2023-06-05T11:38:16;29.10;48.30
8896;DHT22;4484;48.928;10.066;2023-06-05T11:40:47;29.10;50.70
8896;DHT22;4484;48.928;10.066;2023-06-05T11:43:14;29.50;49.80
8896;DHT22;4484;48.928;10.066;2023-06-05T11:45:49;30.20;51.90
8896;DHT22;4484;48.928;10.066;2023-06-05T11:48:16;30.80;49.00
8896;DHT22;4484;48.928;10.066;2023-06-05T11:50:58;30.90;49.20
8896;DHT22;4484;48.928;10.066;2023-06-05T11:53:29;31.30;51.70
8896;DHT22;4484;48.928;10.066;2023-06-05T11:55:57;31.60;49.60
8896;DHT22;4484;48.928;10.066;2023-06-05T11:58:35;31.60;51.60
8896;DHT22;4484;48.928;10.066;2023-06-05T12:01:19;31.90;53.40
8896;DHT22;4484;48.928;10.066;2023-06-05T12:04:05;31.80;51.90
8896;DHT22;4484;48.928;10.066;2023-06-05T12:06:32;31.60;50.30
8896;DHT22;4484;48.928;10.066;2023-06-05T12:09:11;31.20;46.50
8896;DHT22;4484;48.928;10.066;2023-06-05T12:11:38;31.00;48.50
8896;DHT22;4484;48.928;10.066;2023-06-05T12:14:05;30.90;49.40
8896;DHT22;4484;48.928;10.066;2023-06-05T12:19:10;30.20;50.00
8896;DHT22;4484;48.928;10.066;2023-06-05T12:21:43;30.40;52.80
8896;DHT22;4484;48.928;10.066;2023-06-05T12:24:10;30.30;53.70
8896;DHT22;4484;48.928;10.066;2023-06-05T12:26:50;30.50;53.20
8896;DHT22;4484;48.928;10.066;2023-06-05T12:29:31;31.10;55.00
8896;DHT22;4484;48.928;10.066;2023-06-05T12:32:00;31.70;50.70
8896;DHT22;4484;48.928;10.066;2023-06-05T12:34:47;32.30;51.50
8896;DHT22;4484;48.928;10.066;2023-06-05T12:37:30;33.00;52.20
8896;DHT22;4484;48.928;10.066;2023-06-05T12:40:05;32.90;51.40
8896;DHT22;4484;48.928;10.066;2023-06-05T12:42:38;32.40;50.60
8896;DHT22;4484;48.928;10.066;2023-06-05T12:45:05;31.90;50.60
8896;DHT22;4484;48.928;10.066;2023-06-05T12:47:34;31.40;51.80
8896;DHT22;4484;48.928;10.066;2023-06-05T12:50:02;30.90;50.60
8896;DHT22;4484;48.928;10.066;2023-06-05T12:52:30;30.90;51.60
8896;DHT22;4484;48.928;10.066;2023-06-05T12:54:57;31.20;51.00
8896;DHT22;4484;48.928;10.066;2023-06-05T12:57:24;31.70;51.70
8896;DHT22;4484;48.928;10.066;2023-06-05T12:59:54;32.10;51.60
8896;DHT22;4484;48.928;10.066;2023-06-05T13:02:21;32.50;48.10
8896;DHT22;4484;48.928;10.066;2023-06-05T13:04:48;32.40;49.00
8896;DHT22;4484;48.928;10.066;2023-06-05T13:07:16;32.00;49.80
8896;DHT22;4484;48.928;10.066;2023-06-05T13:09:45;31.60;49.80
8896;DHT22;4484;48.928;10.066;2023-06-05T13:12:12;31.00;49.00
8896;DHT22;4484;48.928;10.066;2023-06-05T13:14:39;30.90;50.70
8896;DHT22;4484;48.928;10.066;2023-06-05T13:17:06;31.20;51.20
8896;DHT22;4484;48.928;10.066;2023-06-05T13:19:33;31.50;50.70
8896;DHT22;4484;48.928;10.066;2023-06-05T13:22:00;32.00;51.50
8896;DHT22;4484;48.928;10.066;2023-06-05T13:24:27;32.30;47.90
8896;DHT22;4484;48.928;10.066;2023-06-05T13:26:54;32.70;48.30
8896;DHT22;4484;48.928;10.066;2023-06-05T13:29:21;32.50;47.10
8896;DHT22;4484;48.928;10.066;2023-06-05T13:31:48;32.30;48.10
8896;DHT22;4484;48.928;10.066;2023-06-05T13:34:15;31.90;49.00
8896;DHT22;4484;48.928;10.066;2023-06-05T13:36:41;31.70;47.60
8896;DHT22;4484;48.928;10.066;2023-06-05T13:39:08;31.20;50.70
8896;DHT22;4484;48.928;10.066;2023-06-05T13:41:36;30.70;49.40
8896;DHT22;4484;48.928;10.066;2023-06-05T13:44:03;30.40;49.60
8896;DHT22;4484;48.928;10.066;2023-06-05T13:46:30;30.50;49.20
8896;DHT22;4484;48.928;10.066;2023-06-05T13:48:57;30.70;48.40
8896;DHT22;4484;48.928;10.066;2023-06-05T13:51:27;31.00;49.30
8896;DHT22;4484;48.928;10.066;2023-06-05T13:53:54;31.20;50.40
8896;DHT22;4484;48.928;10.066;2023-06-05T13:56:24;30.90;49.10
8896;DHT22;4484;48.928;10.066;2023-06-05T13:58:51;30.40;48.90
8896;DHT22;4484;48.928;10.066;2023-06-05T14:01:18;29.70;49.40
8896;DHT22;4484;48.928;10.066;2023-06-05T14:03:45;29.30;51.30
8896;DHT22;4484;48.928;10.066;2023-06-05T14:06:16;29.30;53.10
8896;DHT22;4484;48.928;10.066;2023-06-05T14:08:43;29.70;52.00
8896;DHT22;4484;48.928;10.066;2023-06-05T14:11:11;30.10;52.10
8896;DHT22;4484;48.928;10.066;2023-06-05T14:13:38;30.50;51.70
8896;DHT22;4484;48.928;10.066;2023-06-05T14:16:04;30.90;52.10
8896;DHT22;4484;48.928;10.066;2023-06-05T14:18:31;31.30;48.50
8896;DHT22;4484;48.928;10.066;2023-06-05T14:20:58;31.20;45.10
8896;DHT22;4484;48.928;10.066;2023-06-05T14:23:25;31.10;49.10
8896;DHT22;4484;48.928;10.066;2023-06-05T14:25:52;30.70;48.70
8896;DHT22;4484;48.928;10.066;2023-06-05T14:28:19;30.10;48.50
8896;DHT22;4484;48.928;10.066;2023-06-05T14:30:46;29.40;49.30
8896;DHT22;4484;48.928;10.066;2023-06-05T14:33:13;28.80;49.50
8896;DHT22;4484;48.928;10.066;2023-06-05T14:35:40;28.60;50.50
8896;DHT22;4484;48.928;10.066;2023-06-05T14:38:07;28.60;50.90
8896;DHT22;4484;48.928;10.066;2023-06-05T14:40:34;28.70;53.10
8896;DHT22;4484;48.928;10.066;2023-06-05T14:43:01;29.10;51.60
8896;DHT22;4484;48.928;10.066;2023-06-05T14:45:27;29.30;50.40
8896;DHT22;4484;48.928;10.066;2023-06-05T14:47:54;29.20;49.50
8896;DHT22;4484;48.928;10.066;2023-06-05T14:50:21;28.90;49.50
8896;DHT22;4484;48.928;10.066;2023-06-05T14:52:49;28.50;52.30
8896;DHT22;4484;48.928;10.066;2023-06-05T14:55:16;28.30;51.60
8896;DHT22;4484;48.928;10.066;2023-06-05T14:57:44;28.10;53.20
8896;DHT22;4484;48.928;10.066;2023-06-05T15:00:11;27.80;55.00
8896;DHT22;4484;48.928;10.066;2023-06-05T15:02:38;27.60;55.30
8896;DHT22;4484;48.928;10.066;2023-06-05T15:05:06;27.40;57.00
8896;DHT22;4484;48.928;10.066;2023-06-05T15:07:37;27.40;57.80
8896;DHT22;4484;48.928;10.066;2023-06-05T15:10:05;27.80;58.30
8896;DHT22;4484;48.928;10.066;2023-06-05T15:12:33;28.10;54.50
8896;DHT22;4484;48.928;10.066;2023-06-05T15:15:00;28.30;52.90
8896;DHT22;4484;48.928;10.066;2023-06-05T15:17:45;28.20;53.90
8896;DHT22;4484;48.928;10.066;2023-06-05T15:20:13;28.00;56.00
8896;DHT22;4484;48.928;10.066;2023-06-05T15:22:41;27.70;55.40
8896;DHT22;4484;48.928;10.066;2023-06-05T15:25:08;27.40;55.40
8896;DHT22;4484;48.928;10.066;2023-06-05T15:27:35;26.90;56.60
8896;DHT22;4484;48.928;10.066;2023-06-05T15:30:03;26.70;58.60
8896;DHT22;4484;48.928;10.066;2023-06-05T15:32:30;26.80;58.30
8896;DHT22;4484;48.928;10.066;2023-06-05T15:34:57;26.90;58.30
8896;DHT22;4484;48.928;10.066;2023-06-05T15:37:25;27.20;58.90
8896;DHT22;4484;48.928;10.066;2023-06-05T15:39:52;27.50;58.70
8896;DHT22;4484;48.928;10.066;2023-06-05T15:42:28;27.70;54.50
8896;DHT22;4484;48.928;10.066;2023-06-05T15:45:09;27.90;55.40
8896;DHT22;4484;48.928;10.066;2023-06-05T15:47:36;27.80;55.00
8896;DHT22;4484;48.928;10.066;2023-06-05T15:50:03;27.50;56.40
8896;DHT22;4484;48.928;10.066;2023-06-05T15:52:34;27.20;56.90
8896;DHT22;4484;48.928;10.066;2023-06-05T15:55:02;27.00;57.50
8896;DHT22;4484;48.928;10.066;2023-06-05T15:57:29;26.70;57.70
8896;DHT22;4484;48.928;10.066;2023-06-05T15:59:56;26.50;56.90
8896;DHT22;4484;48.928;10.066;2023-06-05T16:02:23;26.40;54.10
8896;DHT22;4484;48.928;10.066;2023-06-05T16:04:50;26.30;55.20
8896;DHT22;4484;48.928;10.066;2023-06-05T16:07:17;26.30;57.00
8896;DHT22;4484;48.928;10.066;2023-06-05T16:09:44;26.50;56.60
8896;DHT22;4484;48.928;10.066;2023-06-05T16:12:10;26.50;57.70
8896;DHT22;4484;48.928;10.066;2023-06-05T16:14:38;26.50;57.10
8896;DHT22;4484;48.928;10.066;2023-06-05T16:17:05;26.50;58.30
8896;DHT22;4484;48.928;10.066;2023-06-05T16:19:32;26.40;58.70
8896;DHT22;4484;48.928;10.066;2023-06-05T16:21:59;26.20;57.30
8896;DHT22;4484;48.928;10.066;2023-06-05T16:24:26;26.00;58.40
8896;DHT22;4484;48.928;10.066;2023-06-05T16:26:53;25.80;58.50
8896;DHT22;4484;48.928;10.066;2023-06-05T16:29:20;25.50;58.70
8896;DHT22;4484;48.928;10.066;2023-06-05T16:31:47;25.20;59.70
8896;DHT22;4484;48.928;10.066;2023-06-05T16:34:17;24.80;61.60
8896;DHT22;4484;48.928;10.066;2023-06-05T16:36:44;24.50;63.40
8896;DHT22;4484;48.928;10.066;2023-06-05T16:39:11;24.30;64.50